createdAt,value
2023-02-15T00:00:09.511Z,0
2023-02-15T00:01:10.726Z,0
2023-02-15T00:02:11.127Z,0
2023-02-15T00:03:11.816Z,0
2023-02-15T00:04:12.428Z,0
2023-02-15T00:05:12.631Z,0
2023-02-15T00:06:13.291Z,0
2023-02-15T00:07:13.518Z,0
2023-02-15T00:08:14.762Z,0
2023-02-15T00:09:14.686Z,0
2023-02-15T00:10:15.261Z,0
2023-02-15T00:11:15.472Z,0
2023-02-15T00:12:15.822Z,0
2023-02-15T00:13:16.888Z,0
2023-02-15T00:14:17.255Z,0
2023-02-15T00:15:18.747Z,0
2023-02-15T00:16:18.320Z,0
2023-02-15T00:17:19.870Z,0
2023-02-15T00:18:19.792Z,0
2023-02-15T00:19:20.989Z,0
2023-02-15T00:20:20.935Z,0
2023-02-15T00:21:22.216Z,0
2023-02-15T00:22:22.738Z,0
2023-02-15T00:23:22.445Z,0
2023-02-15T00:24:23.667Z,0
2023-02-15T00:25:23.850Z,0
2023-02-15T00:26:25.063Z,0
2023-02-15T00:27:25.279Z,0
2023-02-15T00:28:25.492Z,0
2023-02-15T00:29:26.708Z,0
2023-02-15T00:30:27.109Z,0
2023-02-15T00:31:27.483Z,0
2023-02-15T00:32:27.406Z,0
2023-02-15T00:33:29.027Z,0
2023-02-15T00:34:28.987Z,0
2023-02-15T00:35:29.416Z,0
2023-02-15T00:36:30.687Z,0
2023-02-15T00:37:30.319Z,0
2023-02-15T00:38:31.670Z,0
2023-02-15T00:39:32.607Z,0
2023-02-15T00:40:33.804Z,0
2023-02-15T00:41:33.760Z,0
2023-02-15T00:42:34.243Z,0
2023-02-15T00:43:35.384Z,0
2023-02-15T00:44:35.877Z,0
2023-02-15T00:45:36.067Z,0
2023-02-15T00:46:37.037Z,0
2023-02-15T00:47:36.663Z,0
2023-02-15T00:48:37.887Z,0
2023-02-15T00:49:38.094Z,0
2023-02-15T00:50:38.767Z,0
2023-02-15T00:51:39.775Z,0
2023-02-15T00:52:40.009Z,0
2023-02-15T00:53:40.370Z,0
2023-02-15T00:54:40.279Z,0
2023-02-15T00:55:40.913Z,0
2023-02-15T00:56:41.540Z,0
2023-02-15T00:57:42.177Z,0
2023-02-15T00:58:43.392Z,0
2023-02-15T00:59:43.588Z,0
2023-02-15T01:00:43.506Z,0
2023-02-15T01:01:45.228Z,0
2023-02-15T01:02:45.733Z,0
2023-02-15T01:03:46.025Z,0
2023-02-15T01:04:46.788Z,0
2023-02-15T01:05:47.032Z,0
2023-02-15T01:06:47.599Z,0
2023-02-15T01:07:47.822Z,0
2023-02-15T01:08:48.374Z,0
2023-02-15T01:09:49.577Z,0
2023-02-15T01:10:49.775Z,0
2023-02-15T01:11:50.418Z,0
2023-02-15T01:12:51.608Z,0
2023-02-15T01:13:52.938Z,0
2023-02-15T01:14:52.610Z,0
2023-02-15T01:15:55.083Z,0
2023-02-15T01:16:55.030Z,0
2023-02-15T01:17:54.713Z,0
2023-02-15T01:18:56.039Z,0
2023-02-15T01:19:55.653Z,0
2023-02-15T01:20:57.156Z,0
2023-02-15T01:21:57.424Z,0
2023-02-15T01:22:57.649Z,0
2023-02-15T01:23:58.940Z,0
2023-02-15T01:24:59.148Z,0
2023-02-15T01:25:59.429Z,0
2023-02-15T01:27:00.020Z,0
2023-02-15T01:28:00.349Z,0
2023-02-15T01:29:00.583Z,0
2023-02-15T01:30:00.946Z,0
2023-02-15T01:31:01.752Z,0
2023-02-15T01:32:02.921Z,0
2023-02-15T01:33:02.264Z,0
2023-02-15T01:34:03.311Z,0
2023-02-15T01:35:03.599Z,0
2023-02-15T01:36:04.004Z,0
2023-02-15T01:37:03.967Z,0
2023-02-15T01:38:04.229Z,0
2023-02-15T01:39:05.439Z,0
2023-02-15T01:40:06.069Z,0
2023-02-15T01:41:06.302Z,0
2023-02-15T01:42:06.922Z,0
2023-02-15T01:43:07.844Z,0
2023-02-15T01:44:08.856Z,0
2023-02-15T01:45:09.059Z,0
2023-02-15T01:46:10.576Z,0
2023-02-15T01:47:09.834Z,0
2023-02-15T01:48:10.050Z,0
2023-02-15T01:49:11.259Z,0
2023-02-15T01:50:11.227Z,0
2023-02-15T01:51:12.584Z,0
2023-02-15T01:52:13.570Z,0
2023-02-15T01:53:13.493Z,0
2023-02-15T01:54:15.113Z,0
2023-02-15T01:55:17.726Z,0
2023-02-15T01:56:15.728Z,0
2023-02-15T01:57:15.944Z,0
2023-02-15T01:58:16.986Z,0
2023-02-15T01:59:17.185Z,0
2023-02-15T02:00:16.851Z,0
2023-02-15T02:01:18.410Z,0
2023-02-15T02:02:18.392Z,0
2023-02-15T02:03:18.778Z,0
2023-02-15T02:04:19.796Z,0
2023-02-15T02:05:20.392Z,0
2023-02-15T02:06:20.650Z,0
2023-02-15T02:07:21.539Z,0
2023-02-15T02:08:22.098Z,0
2023-02-15T02:09:21.753Z,0
2023-02-15T02:10:23.386Z,0
2023-02-15T02:11:24.328Z,0
2023-02-15T02:12:25.020Z,0
2023-02-15T02:13:24.955Z,0
2023-02-15T02:14:25.716Z,0
2023-02-15T02:15:25.745Z,0
2023-02-15T02:16:27.228Z,0
2023-02-15T02:17:27.201Z,0
2023-02-15T02:18:28.106Z,0
2023-02-15T02:19:28.753Z,0
2023-02-15T02:20:29.952Z,0
2023-02-15T02:21:31.189Z,0
2023-02-15T02:22:31.163Z,0
2023-02-15T02:23:31.702Z,0
2023-02-15T02:24:31.717Z,0
2023-02-15T02:25:32.924Z,0
2023-02-15T02:26:32.851Z,0
2023-02-15T02:27:33.754Z,0
2023-02-15T02:28:34.241Z,0
2023-02-15T02:29:34.434Z,0
2023-02-15T02:30:35.361Z,0
2023-02-15T02:31:36.445Z,0
2023-02-15T02:32:35.763Z,0
2023-02-15T02:33:36.393Z,0
2023-02-15T02:34:37.711Z,0
2023-02-15T02:35:37.661Z,0
2023-02-15T02:36:38.886Z,0
2023-02-15T02:37:39.502Z,0
2023-02-15T02:38:40.105Z,0
2023-02-15T02:39:40.000Z,0
2023-02-15T02:40:40.628Z,0
2023-02-15T02:41:40.562Z,0
2023-02-15T02:42:41.772Z,0
2023-02-15T02:43:42.700Z,0
2023-02-15T02:44:43.005Z,0
2023-02-15T02:45:43.491Z,0
2023-02-15T02:46:43.957Z,0
2023-02-15T02:47:44.193Z,0
2023-02-15T02:48:44.703Z,0
2023-02-15T02:49:45.210Z,0
2023-02-15T02:50:45.478Z,0
2023-02-15T02:51:45.415Z,0
2023-02-15T02:52:46.376Z,0
2023-02-15T02:53:46.732Z,0
2023-02-15T02:54:47.067Z,0
2023-02-15T02:55:46.973Z,0
2023-02-15T02:56:48.488Z,0
2023-02-15T02:57:48.694Z,0
2023-02-15T02:58:48.620Z,0
2023-02-15T02:59:49.263Z,0
2023-02-15T03:00:50.186Z,0
2023-02-15T03:01:51.497Z,0
2023-02-15T03:02:51.773Z,0
2023-02-15T03:03:51.854Z,0
2023-02-15T03:04:53.139Z,0
2023-02-15T03:05:54.106Z,0
2023-02-15T03:06:54.647Z,0
2023-02-15T03:07:54.928Z,0
2023-02-15T03:08:54.860Z,0
2023-02-15T03:09:55.525Z,0
2023-02-15T03:10:56.445Z,0
2023-02-15T03:11:56.378Z,0
2023-02-15T03:12:56.998Z,0
2023-02-15T03:13:58.227Z,0
2023-02-15T03:14:59.256Z,0
2023-02-15T03:16:00.115Z,0
2023-02-15T03:16:59.890Z,0
2023-02-15T03:18:00.379Z,0
2023-02-15T03:18:59.725Z,0
2023-02-15T03:20:00.647Z,0
2023-02-15T03:21:01.591Z,0
2023-02-15T03:22:02.534Z,0
2023-02-15T03:23:02.798Z,0
2023-02-15T03:24:03.023Z,0
2023-02-15T03:25:02.759Z,0
2023-02-15T03:26:04.592Z,0
2023-02-15T03:27:04.315Z,0
2023-02-15T03:28:05.550Z,0
2023-02-15T03:29:06.191Z,0
2023-02-15T03:30:07.157Z,0
2023-02-15T03:31:07.460Z,0
2023-02-15T03:32:07.788Z,0
2023-02-15T03:33:08.368Z,0
2023-02-15T03:34:08.996Z,0
2023-02-15T03:35:10.055Z,0
2023-02-15T03:36:10.469Z,0
2023-02-15T03:37:13.863Z,0
2023-02-15T03:38:11.872Z,0
2023-02-15T03:39:11.816Z,0
2023-02-15T03:40:13.007Z,0
2023-02-15T03:41:14.228Z,0
2023-02-15T03:42:14.883Z,0
2023-02-15T03:43:16.090Z,0
2023-02-15T03:44:16.307Z,0
2023-02-15T03:45:17.289Z,0
2023-02-15T03:46:18.380Z,0
2023-02-15T03:47:18.389Z,0
2023-02-15T03:48:19.613Z,0
2023-02-15T03:49:19.249Z,0
2023-02-15T03:50:19.594Z,0
2023-02-15T03:51:20.844Z,0
2023-02-15T03:52:22.203Z,0
2023-02-15T03:53:22.764Z,0
2023-02-15T03:54:22.721Z,0
2023-02-15T03:55:23.499Z,0
2023-02-15T03:56:24.693Z,0
2023-02-15T03:57:25.031Z,0
2023-02-15T03:58:26.269Z,0
2023-02-15T03:59:25.905Z,0
2023-02-15T04:00:27.087Z,0
2023-02-15T04:01:28.360Z,0
2023-02-15T04:02:28.441Z,0
2023-02-15T04:03:29.896Z,0
2023-02-15T04:04:31.623Z,0
2023-02-15T04:05:29.601Z,0
2023-02-15T04:06:30.527Z,0
2023-02-15T04:07:30.758Z,0
2023-02-15T04:08:31.750Z,0
2023-02-15T04:09:31.981Z,0
2023-02-15T04:10:32.464Z,0
2023-02-15T04:11:32.371Z,0
2023-02-15T04:12:32.589Z,0
2023-02-15T04:13:32.822Z,0
2023-02-15T04:14:33.787Z,0
2023-02-15T04:15:34.277Z,0
2023-02-15T04:16:36.985Z,0
2023-02-15T04:17:35.960Z,0
2023-02-15T04:18:36.158Z,0
2023-02-15T04:19:36.346Z,0
2023-02-15T04:20:36.244Z,0
2023-02-15T04:21:37.730Z,0
2023-02-15T04:22:38.011Z,0
2023-02-15T04:23:38.017Z,0
2023-02-15T04:24:38.251Z,0
2023-02-15T04:25:39.339Z,0
2023-02-15T04:26:39.547Z,0
2023-02-15T04:27:39.456Z,0
2023-02-15T04:28:40.398Z,0
2023-02-15T04:29:41.303Z,0
2023-02-15T04:30:41.706Z,0
2023-02-15T04:31:42.994Z,0
2023-02-15T04:32:43.440Z,0
2023-02-15T04:33:43.927Z,0
2023-02-15T04:34:44.432Z,0
2023-02-15T04:35:44.758Z,0
2023-02-15T04:36:44.973Z,0
2023-02-15T04:37:45.903Z,0
2023-02-15T04:38:46.879Z,0
2023-02-15T04:39:47.391Z,0
2023-02-15T04:40:47.342Z,0
2023-02-15T04:41:48.534Z,0
2023-02-15T04:42:48.739Z,0
2023-02-15T04:43:49.087Z,0
2023-02-15T04:44:50.599Z,0
2023-02-15T04:45:50.603Z,0
2023-02-15T04:46:51.331Z,0
2023-02-15T04:47:52.586Z,0
2023-02-15T04:48:52.206Z,0
2023-02-15T04:49:53.699Z,0
2023-02-15T04:50:53.906Z,0
2023-02-15T04:51:54.107Z,0
2023-02-15T04:52:55.339Z,0
2023-02-15T04:53:55.619Z,0
2023-02-15T04:54:55.557Z,0
2023-02-15T04:55:57.114Z,0
2023-02-15T04:56:57.963Z,0
2023-02-15T04:57:58.181Z,0
2023-02-15T04:58:57.812Z,0
2023-02-15T04:59:59.030Z,0
2023-02-15T05:00:59.473Z,0
2023-02-15T05:02:00.227Z,0
2023-02-15T05:03:01.342Z,0
2023-02-15T05:04:01.141Z,0
2023-02-15T05:05:01.833Z,0
2023-02-15T05:06:03.164Z,0
2023-02-15T05:07:02.739Z,0
2023-02-15T05:08:03.971Z,0
2023-02-15T05:09:05.397Z,0
2023-02-15T05:10:05.902Z,0
2023-02-15T05:11:06.119Z,0
2023-02-15T05:12:06.615Z,0
2023-02-15T05:13:06.830Z,0
2023-02-15T05:14:07.758Z,0
2023-02-15T05:15:07.990Z,0
2023-02-15T05:16:09.159Z,0
2023-02-15T05:17:08.638Z,0
2023-02-15T05:18:09.575Z,0
2023-02-15T05:19:09.820Z,0
2023-02-15T05:20:10.736Z,0
2023-02-15T05:21:11.375Z,0
2023-02-15T05:22:12.325Z,0
2023-02-15T05:23:13.539Z,0
2023-02-15T05:24:14.106Z,0
2023-02-15T05:25:14.031Z,0
2023-02-15T05:26:15.231Z,0
2023-02-15T05:27:15.163Z,0
2023-02-15T05:28:16.810Z,0
2023-02-15T05:29:16.448Z,0
2023-02-15T05:30:17.060Z,0
2023-02-15T05:31:18.554Z,0
2023-02-15T05:32:18.635Z,0
2023-02-15T05:33:18.786Z,0
2023-02-15T05:34:19.704Z,0
2023-02-15T05:35:19.675Z,0
2023-02-15T05:36:21.355Z,0
2023-02-15T05:37:21.300Z,0
2023-02-15T05:38:22.293Z,0
2023-02-15T05:39:22.860Z,0
2023-02-15T05:40:23.112Z,0
2023-02-15T05:41:23.047Z,0
2023-02-15T05:42:23.979Z,0
2023-02-15T05:43:24.912Z,0
2023-02-15T05:44:25.103Z,0
2023-02-15T05:45:25.355Z,0
2023-02-15T05:46:26.408Z,0
2023-02-15T05:47:26.284Z,0
2023-02-15T05:48:26.782Z,0
2023-02-15T05:49:26.680Z,0
2023-02-15T05:50:27.057Z,0
2023-02-15T05:51:28.289Z,0
2023-02-15T05:52:28.642Z,0
2023-02-15T05:53:29.862Z,4
2023-02-15T05:54:31.178Z,0
2023-02-15T05:55:31.691Z,0
2023-02-15T05:56:32.734Z,4
2023-02-15T05:57:32.965Z,0
2023-02-15T05:58:33.186Z,4
2023-02-15T05:59:33.685Z,4
2023-02-15T06:00:33.608Z,4
2023-02-15T06:01:34.538Z,8
2023-02-15T06:02:34.699Z,4
2023-02-15T06:03:35.080Z,8
2023-02-15T06:04:35.173Z,8
2023-02-15T06:05:35.789Z,8
2023-02-15T06:06:36.572Z,12
2023-02-15T06:07:37.071Z,12
2023-02-15T06:08:37.299Z,16
2023-02-15T06:09:38.285Z,16
2023-02-15T06:10:38.509Z,20
2023-02-15T06:11:38.712Z,24
2023-02-15T06:12:38.924Z,24
2023-02-15T06:13:44.657Z,28
2023-02-15T06:14:41.248Z,32
2023-02-15T06:15:41.271Z,36
2023-02-15T06:16:41.738Z,40
2023-02-15T06:17:42.229Z,48
2023-02-15T06:18:42.436Z,48
2023-02-15T06:19:42.640Z,52
2023-02-15T06:20:43.852Z,60
2023-02-15T06:21:44.059Z,64
2023-02-15T06:22:43.977Z,72
2023-02-15T06:23:44.596Z,80
2023-02-15T06:24:44.864Z,84
2023-02-15T06:25:47.722Z,92
2023-02-15T06:26:45.718Z,96
2023-02-15T06:27:46.675Z,104
2023-02-15T06:28:47.622Z,112
2023-02-15T06:29:48.569Z,116
2023-02-15T06:30:49.883Z,128
2023-02-15T06:31:50.544Z,136
2023-02-15T06:32:50.727Z,140
2023-02-15T06:33:50.642Z,148
2023-02-15T06:34:54.417Z,156
2023-02-15T06:35:52.659Z,160
2023-02-15T06:36:53.414Z,172
2023-02-15T06:37:54.310Z,180
2023-02-15T06:38:54.957Z,188
2023-02-15T06:39:55.669Z,192
2023-02-15T06:40:55.563Z,200
2023-02-15T06:41:55.772Z,208
2023-02-15T06:42:55.991Z,220
2023-02-15T06:43:56.909Z,224
2023-02-15T06:44:58.113Z,232
2023-02-15T06:45:58.204Z,240
2023-02-15T06:46:59.743Z,252
2023-02-15T06:48:00.001Z,728
2023-02-15T06:49:00.494Z,1204
2023-02-15T06:50:00.706Z,1008
2023-02-15T06:51:01.083Z,1060
2023-02-15T06:52:02.321Z,1376
2023-02-15T06:53:02.530Z,1588
2023-02-15T06:54:03.029Z,1872
2023-02-15T06:55:03.325Z,2140
2023-02-15T06:56:03.486Z,2264
2023-02-15T06:57:04.212Z,2084
2023-02-15T06:58:04.886Z,2008
2023-02-15T06:59:05.188Z,1736
2023-02-15T07:00:05.398Z,1180
2023-02-15T07:01:06.352Z,1092
2023-02-15T07:02:07.136Z,1016
2023-02-15T07:03:06.895Z,688
2023-02-15T07:04:08.125Z,680
2023-02-15T07:05:08.632Z,676
2023-02-15T07:06:09.751Z,644
2023-02-15T07:07:10.108Z,712
2023-02-15T07:08:10.518Z,996
2023-02-15T07:09:11.744Z,1204
2023-02-15T07:10:12.023Z,1244
2023-02-15T07:11:11.968Z,1320
2023-02-15T07:12:12.937Z,1328
2023-02-15T07:13:14.155Z,1444
2023-02-15T07:14:14.373Z,1596
2023-02-15T07:15:15.304Z,1404
2023-02-15T07:16:15.931Z,1052
2023-02-15T07:17:41.622Z,1300
2023-02-15T07:18:16.554Z,1292
2023-02-15T07:19:17.232Z,1048
2023-02-15T07:20:18.159Z,820
2023-02-15T07:21:19.078Z,740
2023-02-15T07:22:20.011Z,744
2023-02-15T07:23:21.223Z,852
2023-02-15T07:24:21.211Z,1128
2023-02-15T07:25:21.529Z,1464
2023-02-15T07:26:21.761Z,1624
2023-02-15T07:27:25.092Z,1864
2023-02-15T07:28:23.022Z,1936
2023-02-15T07:29:23.549Z,2176
2023-02-15T07:30:24.144Z,2704
2023-02-15T07:31:24.970Z,2624
2023-02-15T07:32:25.462Z,2336
2023-02-15T07:33:25.887Z,2664
2023-02-15T07:34:26.117Z,3848
2023-02-15T07:35:26.606Z,4272
2023-02-15T07:36:26.527Z,4152
2023-02-15T07:37:28.167Z,4088
2023-02-15T07:38:28.665Z,3888
2023-02-15T07:39:28.901Z,3840
2023-02-15T07:40:29.520Z,3568
2023-02-15T07:41:30.081Z,3936
2023-02-15T07:42:30.003Z,5196
2023-02-15T07:43:30.918Z,6476
2023-02-15T07:44:32.195Z,7604
2023-02-15T07:45:32.135Z,8652
2023-02-15T07:46:33.261Z,9924
2023-02-15T07:47:33.622Z,10512
2023-02-15T07:48:36.429Z,10104
2023-02-15T07:49:35.631Z,9372
2023-02-15T07:50:35.966Z,8644
2023-02-15T07:51:36.625Z,7848
2023-02-15T07:52:37.856Z,7444
2023-02-15T07:53:38.512Z,7312
2023-02-15T07:54:39.575Z,7304
2023-02-15T07:55:40.256Z,7484
2023-02-15T07:56:43.058Z,7856
2023-02-15T07:57:41.748Z,7868
2023-02-15T07:58:41.966Z,7640
2023-02-15T07:59:42.983Z,7616
2023-02-15T08:00:43.202Z,8160
2023-02-15T08:01:44.151Z,8344
2023-02-15T08:02:45.086Z,8044
2023-02-15T08:03:45.545Z,7968
2023-02-15T08:04:46.290Z,8368
2023-02-15T08:05:46.827Z,8876
2023-02-15T08:06:47.337Z,9100
2023-02-15T08:07:47.518Z,9232
2023-02-15T08:08:48.447Z,9384
2023-02-15T08:09:49.428Z,8660
2023-02-15T08:10:50.442Z,6592
2023-02-15T08:11:50.731Z,4640
2023-02-15T08:12:51.952Z,4600
2023-02-15T08:13:52.286Z,5848
2023-02-15T08:14:52.517Z,6844
2023-02-15T08:15:53.039Z,7492
2023-02-15T08:16:53.949Z,8552
2023-02-15T08:17:53.864Z,9604
2023-02-15T08:18:54.363Z,9836
2023-02-15T08:19:54.313Z,9668
2023-02-15T08:20:55.528Z,9972
2023-02-15T08:21:55.475Z,10352
2023-02-15T08:22:56.723Z,10488
2023-02-15T08:23:57.005Z,11024
2023-02-15T08:24:58.340Z,11092
2023-02-15T08:25:58.639Z,11024
2023-02-15T08:26:59.118Z,11516
2023-02-15T08:27:59.322Z,11356
2023-02-15T08:29:00.325Z,9100
2023-02-15T08:30:01.573Z,5816
2023-02-15T08:31:02.370Z,4256
2023-02-15T08:32:03.456Z,5456
2023-02-15T08:33:03.917Z,6860
2023-02-15T08:34:04.866Z,7092
2023-02-15T08:35:05.551Z,6276
2023-02-15T08:36:06.499Z,4492
2023-02-15T08:37:07.751Z,3056
2023-02-15T08:38:08.109Z,2384
2023-02-15T08:39:08.647Z,2196
2023-02-15T08:40:08.904Z,2060
2023-02-15T08:41:09.932Z,2772
2023-02-15T08:42:09.918Z,5148
2023-02-15T08:43:11.142Z,6252
2023-02-15T08:44:11.105Z,5836
2023-02-15T08:45:11.772Z,7884
2023-02-15T08:46:13.300Z,9760
2023-02-15T08:47:13.652Z,9232
2023-02-15T08:48:13.961Z,7208
2023-02-15T08:49:14.194Z,6264
2023-02-15T08:50:14.742Z,6660
2023-02-15T08:51:15.235Z,7324
2023-02-15T08:52:15.756Z,7484
2023-02-15T08:53:16.855Z,10032
2023-02-15T08:54:16.436Z,11692
2023-02-15T08:55:16.969Z,10508
2023-02-15T08:56:17.647Z,7684
2023-02-15T08:57:17.622Z,6352
2023-02-15T08:58:18.536Z,7488
2023-02-15T08:59:19.782Z,7360
2023-02-15T09:00:20.080Z,6596
2023-02-15T09:01:21.619Z,5560
2023-02-15T09:02:22.196Z,5948
2023-02-15T09:03:22.559Z,7292
2023-02-15T09:04:22.523Z,8368
2023-02-15T09:05:23.790Z,8976
2023-02-15T09:06:23.736Z,8180
2023-02-15T09:07:25.275Z,5552
2023-02-15T09:08:25.595Z,4788
2023-02-15T09:09:25.857Z,5304
2023-02-15T09:10:26.190Z,4096
2023-02-15T09:11:27.536Z,2920
2023-02-15T09:12:28.093Z,2216
2023-02-15T09:13:28.378Z,1968
2023-02-15T09:14:28.890Z,1788
2023-02-15T09:15:29.110Z,1668
2023-02-15T09:16:29.466Z,1724
2023-02-15T09:17:29.924Z,1944
2023-02-15T09:18:30.002Z,2388
2023-02-15T09:19:31.568Z,3584
2023-02-15T09:20:32.038Z,6316
2023-02-15T09:21:32.265Z,8504
2023-02-15T09:22:32.825Z,10416
2023-02-15T09:23:37.978Z,11920
2023-02-15T09:24:33.548Z,11404
2023-02-15T09:25:34.097Z,9080
2023-02-15T09:26:34.431Z,6688
2023-02-15T09:27:34.970Z,7212
2023-02-15T09:28:35.463Z,9548
2023-02-15T09:29:36.443Z,11492
2023-02-15T09:30:37.573Z,12984
2023-02-15T09:31:38.334Z,13612
2023-02-15T09:32:38.856Z,13672
2023-02-15T09:33:39.371Z,14180
2023-02-15T09:34:40.851Z,14748
2023-02-15T09:35:41.097Z,14888
2023-02-15T09:36:40.771Z,14944
2023-02-15T09:37:42.066Z,14988
2023-02-15T09:38:42.270Z,14960
2023-02-15T09:39:42.823Z,14932
2023-02-15T09:40:43.317Z,14832
2023-02-15T09:41:43.942Z,14536
2023-02-15T09:42:44.313Z,13396
2023-02-15T09:43:45.295Z,11120
2023-02-15T09:44:45.232Z,8676
2023-02-15T09:45:45.625Z,9076
2023-02-15T09:46:45.607Z,11720
2023-02-15T09:47:45.871Z,12996
2023-02-15T09:48:46.407Z,12792
2023-02-15T09:49:46.921Z,12504
2023-02-15T09:50:48.362Z,11612
2023-02-15T09:51:47.352Z,10896
2023-02-15T09:52:47.449Z,9244
2023-02-15T09:53:48.785Z,7892
2023-02-15T09:54:48.454Z,9272
2023-02-15T09:55:50.012Z,10160
2023-02-15T09:56:50.676Z,10812
2023-02-15T09:57:50.915Z,11664
2023-02-15T09:58:51.571Z,12216
2023-02-15T09:59:51.262Z,12504
2023-02-15T10:00:52.271Z,12624
2023-02-15T10:01:52.550Z,12752
2023-02-15T10:02:53.084Z,12764
2023-02-15T10:03:53.550Z,12320
2023-02-15T10:04:54.044Z,11636
2023-02-15T10:05:54.008Z,11020
2023-02-15T10:06:54.721Z,9860
2023-02-15T10:07:54.935Z,10244
2023-02-15T10:08:55.988Z,11160
2023-02-15T10:09:56.546Z,10680
2023-02-15T10:10:56.559Z,10020
2023-02-15T10:11:57.142Z,10192
2023-02-15T10:12:57.438Z,9968
2023-02-15T10:13:58.387Z,8872
2023-02-15T10:14:59.321Z,8684
2023-02-15T10:15:59.309Z,9512
2023-02-15T10:17:00.174Z,9632
2023-02-15T10:18:01.496Z,9464
2023-02-15T10:19:01.706Z,10272
2023-02-15T10:20:02.244Z,10912
2023-02-15T10:21:02.792Z,11084
2023-02-15T10:22:02.942Z,11408
2023-02-15T10:23:03.235Z,11424
2023-02-15T10:24:04.481Z,11500
2023-02-15T10:25:04.439Z,11840
2023-02-15T10:26:06.528Z,12432
2023-02-15T10:27:06.098Z,13288
2023-02-15T10:28:06.346Z,13668
2023-02-15T10:29:06.574Z,13832
2023-02-15T10:30:08.345Z,13952
2023-02-15T10:31:09.775Z,14056
2023-02-15T10:32:09.687Z,14140
2023-02-15T10:33:09.795Z,14216
2023-02-15T10:34:10.032Z,14272
2023-02-15T10:35:10.571Z,14364
2023-02-15T10:36:10.392Z,14524
2023-02-15T10:37:11.940Z,14532
2023-02-15T10:38:12.642Z,14476
2023-02-15T10:39:12.759Z,14420
2023-02-15T10:40:13.991Z,14496
2023-02-15T10:41:15.187Z,14356
2023-02-15T10:42:14.542Z,14324
2023-02-15T10:43:14.511Z,14392
2023-02-15T10:44:16.132Z,14552
2023-02-15T10:45:16.507Z,14492
2023-02-15T10:46:18.213Z,14380
2023-02-15T10:47:19.010Z,14480
2023-02-15T10:48:19.266Z,14500
2023-02-15T10:49:19.413Z,14528
2023-02-15T10:50:20.827Z,14620
2023-02-15T10:51:21.079Z,14664
2023-02-15T10:52:23.465Z,14796
2023-02-15T10:53:22.016Z,14844
2023-02-15T10:54:23.285Z,14852
2023-02-15T10:55:23.523Z,14844
2023-02-15T10:56:24.776Z,14716
2023-02-15T10:57:25.481Z,14560
2023-02-15T10:58:26.051Z,14608
2023-02-15T10:59:26.438Z,14580
2023-02-15T11:00:27.701Z,14556
2023-02-15T11:01:28.215Z,14628
2023-02-15T11:02:28.079Z,14428
2023-02-15T11:03:28.889Z,14344
2023-02-15T11:04:29.844Z,14260
2023-02-15T11:05:31.265Z,14008
2023-02-15T11:06:31.519Z,13664
2023-02-15T11:07:31.182Z,12924
2023-02-15T11:08:32.904Z,12192
2023-02-15T11:09:33.692Z,12104
2023-02-15T11:10:34.261Z,11924
2023-02-15T11:11:34.643Z,11448
2023-02-15T11:12:35.248Z,10384
2023-02-15T11:13:35.761Z,9796
2023-02-15T11:14:35.986Z,9848
2023-02-15T11:15:37.499Z,9476
2023-02-15T11:16:37.754Z,9532
2023-02-15T11:17:38.426Z,9892
2023-02-15T11:18:39.718Z,10180
2023-02-15T11:19:40.099Z,9996
2023-02-15T11:20:40.783Z,9964
2023-02-15T11:21:41.727Z,9556
2023-02-15T11:22:42.362Z,8208
2023-02-15T11:23:42.582Z,7244
2023-02-15T11:24:43.251Z,7356
2023-02-15T11:25:43.936Z,8912
2023-02-15T11:26:45.270Z,9284
2023-02-15T11:27:47.681Z,8324
2023-02-15T11:28:47.317Z,7268
2023-02-15T11:29:47.641Z,6620
2023-02-15T11:30:48.408Z,7880
2023-02-15T11:31:49.278Z,8688
2023-02-15T11:32:50.028Z,6524
2023-02-15T11:33:50.553Z,6304
2023-02-15T11:34:50.489Z,9232
2023-02-15T11:35:50.732Z,10128
2023-02-15T11:36:50.950Z,8396
2023-02-15T11:37:52.248Z,5308
2023-02-15T11:38:52.764Z,5396
2023-02-15T11:39:53.560Z,9196
2023-02-15T11:40:53.548Z,10508
2023-02-15T11:41:55.170Z,10688
2023-02-15T11:42:55.607Z,11404
2023-02-15T11:43:56.221Z,11580
2023-02-15T11:44:56.218Z,9508
2023-02-15T11:45:57.243Z,6624
2023-02-15T11:46:58.515Z,8932
2023-02-15T11:47:58.777Z,10256
2023-02-15T11:48:58.442Z,6372
2023-02-15T11:49:59.779Z,3708
2023-02-15T11:51:00.570Z,4204
2023-02-15T11:52:00.775Z,5896
2023-02-15T11:53:00.999Z,7384
2023-02-15T11:54:01.243Z,7840
2023-02-15T11:55:01.489Z,6872
2023-02-15T11:56:01.726Z,7000
2023-02-15T11:57:02.709Z,8088
2023-02-15T11:58:03.806Z,5844
2023-02-15T11:59:04.072Z,4884
2023-02-15T12:00:05.179Z,7136
2023-02-15T12:01:07.002Z,8352
2023-02-15T12:02:08.017Z,8292
2023-02-15T12:03:07.694Z,8028
2023-02-15T12:04:07.828Z,7888
2023-02-15T12:05:08.499Z,7348
2023-02-15T12:06:09.008Z,7332
2023-02-15T12:07:13.436Z,7496
2023-02-15T12:08:10.830Z,6972
2023-02-15T12:09:12.074Z,6128
2023-02-15T12:10:12.392Z,5804
2023-02-15T12:11:12.673Z,5396
2023-02-15T12:12:13.692Z,5280
2023-02-15T12:13:15.030Z,5524
2023-02-15T12:14:15.314Z,6124
2023-02-15T12:15:15.278Z,7076
2023-02-15T12:16:17.911Z,7208
2023-02-15T12:17:16.960Z,6416
2023-02-15T12:18:17.176Z,5580
2023-02-15T12:19:17.409Z,5276
2023-02-15T12:20:17.621Z,5508
2023-02-15T12:21:17.864Z,6152
2023-02-15T12:22:20.786Z,7120
2023-02-15T12:23:19.045Z,7740
2023-02-15T12:24:19.010Z,8112
2023-02-15T12:25:20.253Z,7924
2023-02-15T12:26:20.198Z,7040
2023-02-15T12:27:21.215Z,6012
2023-02-15T12:28:22.008Z,5836
2023-02-15T12:29:22.021Z,6268
2023-02-15T12:30:23.039Z,6192
2023-02-15T12:31:23.931Z,6356
2023-02-15T12:32:24.922Z,6468
2023-02-15T12:33:24.048Z,6520
2023-02-15T12:34:25.285Z,6088
2023-02-15T12:35:26.505Z,5896
2023-02-15T12:36:26.181Z,5652
2023-02-15T12:37:27.695Z,5504
2023-02-15T12:38:28.221Z,5904
2023-02-15T12:39:28.910Z,6228
2023-02-15T12:40:30.320Z,6604
2023-02-15T12:41:29.136Z,7196
2023-02-15T12:42:30.399Z,7796
2023-02-15T12:43:30.757Z,8108
2023-02-15T12:44:31.341Z,7580
2023-02-15T12:45:31.884Z,6268
2023-02-15T12:46:37.832Z,5624
2023-02-15T12:47:35.453Z,5604
2023-02-15T12:48:32.692Z,6532
2023-02-15T12:49:33.032Z,6564
2023-02-15T12:50:40.838Z,5800
2023-02-15T12:51:34.090Z,6168
2023-02-15T12:52:34.334Z,6664
2023-02-15T12:53:34.544Z,6860
2023-02-15T12:54:34.826Z,7028
2023-02-15T12:55:35.502Z,6956
2023-02-15T12:56:36.527Z,6692
2023-02-15T12:57:37.168Z,6296
2023-02-15T12:58:37.593Z,6292
2023-02-15T12:59:38.184Z,6500
2023-02-15T13:00:38.965Z,6516
2023-02-15T13:01:39.330Z,6396
2023-02-15T13:02:39.618Z,6392
2023-02-15T13:03:39.894Z,6564
2023-02-15T13:04:40.420Z,6644
2023-02-15T13:05:40.675Z,6656
2023-02-15T13:06:41.664Z,6440
2023-02-15T13:07:42.879Z,6092
2023-02-15T13:08:42.229Z,4996
2023-02-15T13:09:43.174Z,4556
2023-02-15T13:10:44.229Z,5064
2023-02-15T13:11:44.467Z,5372
2023-02-15T13:12:45.427Z,5564
2023-02-15T13:13:46.443Z,6088
2023-02-15T13:14:46.410Z,7392
2023-02-15T13:15:47.719Z,7672
2023-02-15T13:16:49.377Z,7604
2023-02-15T13:17:49.641Z,7628
2023-02-15T13:18:50.162Z,7620
2023-02-15T13:19:50.828Z,7564
2023-02-15T13:20:51.206Z,6740
2023-02-15T13:21:51.443Z,6380
2023-02-15T13:22:52.659Z,6540
2023-02-15T13:23:53.154Z,6420
2023-02-15T13:24:53.885Z,6944
2023-02-15T13:25:54.108Z,7044
2023-02-15T13:26:59.108Z,6828
2023-02-15T13:27:54.901Z,6368
2023-02-15T13:28:55.539Z,6500
2023-02-15T13:29:56.013Z,6884
2023-02-15T13:30:55.806Z,6820
2023-02-15T13:31:57.592Z,6704
2023-02-15T13:32:57.946Z,6392
2023-02-15T13:33:57.865Z,6184
2023-02-15T13:34:59.368Z,5912
2023-02-15T13:35:59.324Z,6292
2023-02-15T13:36:59.573Z,6556
2023-02-15T13:37:59.792Z,6520
2023-02-15T13:39:00.035Z,6556
2023-02-15T13:40:00.265Z,6716
2023-02-15T13:41:02.728Z,6832
2023-02-15T13:42:00.877Z,6928
2023-02-15T13:43:01.922Z,7044
2023-02-15T13:44:02.212Z,7148
2023-02-15T13:45:02.461Z,6880
2023-02-15T13:46:03.096Z,6532
2023-02-15T13:47:03.296Z,6788
2023-02-15T13:48:03.973Z,6876
2023-02-15T13:49:04.207Z,6928
2023-02-15T13:50:04.710Z,6936
2023-02-15T13:51:04.469Z,6804
2023-02-15T13:52:05.428Z,6716
2023-02-15T13:53:05.528Z,6844
2023-02-15T13:54:06.469Z,6860
2023-02-15T13:55:06.712Z,6876
2023-02-15T13:56:07.672Z,6788
2023-02-15T13:57:07.901Z,6676
2023-02-15T13:58:08.710Z,6524
2023-02-15T13:59:09.041Z,6340
2023-02-15T14:00:09.674Z,6236
2023-02-15T14:01:11.457Z,6092